sensor_id;sensor_type;location;lat;lon;timestamp;P1;durP1;ratioP1;P2;durP2;ratioP2
11034;SDS011;5571;48.110;-1.706;2024-02-28T00:00:10;12.97;;;9.87;;
11034;SDS011;5571;48.110;-1.706;2024-02-28T00:02:36;12.90;;;9.63;;
11034;SDS011;5571;48.110;-1.706;2024-02-28T00:05:02;16.17;;;9.63;;
11034;SDS011;5571;48.110;-1.706;2024-02-28T00:07:28;12.23;;;9.13;;
11034;SDS011;5571;48.110;-1.706;2024-02-28T00:09:55;12.40;;;8.80;;
11034;SDS011;5571;48.110;-1.706;2024-02-28T00:12:23;13.83;;;8.80;;
11034;SDS011;5571;48.110;-1.706;2024-02-28T00:14:50;15.67;;;9.03;;
11034;SDS011;5571;48.110;-1.706;2024-02-28T00:17:16;11.77;;;8.37;;
11034;SDS011;5571;48.110;-1.706;2024-02-28T00:19:41;11.33;;;8.50;;
11034;SDS011;5571;48.110;-1.706;2024-02-28T00:22:08;12.43;;;10.00;;
11034;SDS011;5571;48.110;-1.706;2024-02-28T00:24:34;16.13;;;9.77;;
11034;SDS011;5571;48.110;-1.706;2024-02-28T00:27:00;12.67;;;9.97;;
11034;SDS011;5571;48.110;-1.706;2024-02-28T00:29:25;13.93;;;9.80;;
11034;SDS011;5571;48.110;-1.706;2024-02-28T00:31:51;15.00;;;9.83;;
11034;SDS011;5571;48.110;-1.706;2024-02-28T00:34:17;12.87;;;9.73;;
11034;SDS011;5571;48.110;-1.706;2024-02-28T00:36:43;13.50;;;9.03;;
11034;SDS011;5571;48.110;-1.706;2024-02-28T00:39:09;14.87;;;10.17;;
11034;SDS011;5571;48.110;-1.706;2024-02-28T00:41:35;15.53;;;9.90;;
11034;SDS011;5571;48.110;-1.706;2024-02-28T00:44:02;13.10;;;9.37;;
11034;SDS011;5571;48.110;-1.706;2024-02-28T00:46:28;12.93;;;9.03;;
11034;SDS011;5571;48.110;-1.706;2024-02-28T00:48:53;13.77;;;9.30;;
11034;SDS011;5571;48.110;-1.706;2024-02-28T00:51:19;12.37;;;8.63;;
11034;SDS011;5571;48.110;-1.706;2024-02-28T00:53:45;13.83;;;8.97;;
11034;SDS011;5571;48.110;-1.706;2024-02-28T00:56:10;12.67;;;8.50;;
11034;SDS011;5571;48.110;-1.706;2024-02-28T00:58:36;11.70;;;8.67;;
11034;SDS011;5571;48.110;-1.706;2024-02-28T01:01:02;14.47;;;9.23;;
11034;SDS011;5571;48.110;-1.706;2024-02-28T01:03:27;9.43;;;7.30;;
11034;SDS011;5571;48.110;-1.706;2024-02-28T01:05:53;11.60;;;7.90;;
11034;SDS011;5571;48.110;-1.706;2024-02-28T01:08:19;11.77;;;7.90;;
11034;SDS011;5571;48.110;-1.706;2024-02-28T01:10:45;11.37;;;8.13;;
11034;SDS011;5571;48.110;-1.706;2024-02-28T01:13:11;10.77;;;7.73;;
11034;SDS011;5571;48.110;-1.706;2024-02-28T01:15:39;10.47;;;7.63;;
11034;SDS011;5571;48.110;-1.706;2024-02-28T01:18:05;11.83;;;7.70;;
11034;SDS011;5571;48.110;-1.706;2024-02-28T01:20:31;11.47;;;8.00;;
11034;SDS011;5571;48.110;-1.706;2024-02-28T01:22:57;9.43;;;7.43;;
11034;SDS011;5571;48.110;-1.706;2024-02-28T01:25:22;11.13;;;7.63;;
11034;SDS011;5571;48.110;-1.706;2024-02-28T01:27:48;12.57;;;7.27;;
11034;SDS011;5571;48.110;-1.706;2024-02-28T01:30:13;9.23;;;7.50;;
11034;SDS011;5571;48.110;-1.706;2024-02-28T01:32:39;10.07;;;7.40;;
11034;SDS011;5571;48.110;-1.706;2024-02-28T01:35:05;10.57;;;6.80;;
11034;SDS011;5571;48.110;-1.706;2024-02-28T01:37:33;14.10;;;6.83;;
11034;SDS011;5571;48.110;-1.706;2024-02-28T01:39:58;10.80;;;7.70;;
11034;SDS011;5571;48.110;-1.706;2024-02-28T01:42:24;9.17;;;7.13;;
11034;SDS011;5571;48.110;-1.706;2024-02-28T01:44:49;11.70;;;7.40;;
11034;SDS011;5571;48.110;-1.706;2024-02-28T01:47:15;9.50;;;7.30;;
11034;SDS011;5571;48.110;-1.706;2024-02-28T01:49:41;11.17;;;7.70;;
11034;SDS011;5571;48.110;-1.706;2024-02-28T01:52:08;11.03;;;8.10;;
11034;SDS011;5571;48.110;-1.706;2024-02-28T01:54:35;14.00;;;7.83;;
11034;SDS011;5571;48.110;-1.706;2024-02-28T01:57:01;8.67;;;7.10;;
11034;SDS011;5571;48.110;-1.706;2024-02-28T01:59:27;8.33;;;7.23;;
11034;SDS011;5571;48.110;-1.706;2024-02-28T02:01:54;14.23;;;7.30;;
11034;SDS011;5571;48.110;-1.706;2024-02-28T02:04:20;9.33;;;7.17;;
11034;SDS011;5571;48.110;-1.706;2024-02-28T02:06:46;9.43;;;6.97;;
11034;SDS011;5571;48.110;-1.706;2024-02-28T02:09:14;11.00;;;7.67;;
11034;SDS011;5571;48.110;-1.706;2024-02-28T02:11:41;11.37;;;7.10;;
11034;SDS011;5571;48.110;-1.706;2024-02-28T02:14:06;9.73;;;7.07;;
11034;SDS011;5571;48.110;-1.706;2024-02-28T02:16:32;9.97;;;6.87;;
11034;SDS011;5571;48.110;-1.706;2024-02-28T02:18:57;11.70;;;6.90;;
11034;SDS011;5571;48.110;-1.706;2024-02-28T02:21:23;7.33;;;6.40;;
11034;SDS011;5571;48.110;-1.706;2024-02-28T02:23:54;9.57;;;6.57;;
11034;SDS011;5571;48.110;-1.706;2024-02-28T02:26:20;8.57;;;6.43;;
11034;SDS011;5571;48.110;-1.706;2024-02-28T02:28:46;11.77;;;6.83;;
11034;SDS011;5571;48.110;-1.706;2024-02-28T02:31:11;8.40;;;6.40;;
11034;SDS011;5571;48.110;-1.706;2024-02-28T02:33:38;11.80;;;6.50;;
11034;SDS011;5571;48.110;-1.706;2024-02-28T02:36:03;15.93;;;6.80;;
11034;SDS011;5571;48.110;-1.706;2024-02-28T02:38:29;11.80;;;7.03;;
11034;SDS011;5571;48.110;-1.706;2024-02-28T02:40:55;10.53;;;6.50;;
11034;SDS011;5571;48.110;-1.706;2024-02-28T02:43:20;9.87;;;6.53;;
11034;SDS011;5571;48.110;-1.706;2024-02-28T02:45:46;12.87;;;6.60;;
11034;SDS011;5571;48.110;-1.706;2024-02-28T02:48:12;10.30;;;6.23;;
11034;SDS011;5571;48.110;-1.706;2024-02-28T02:50:37;9.30;;;6.90;;
11034;SDS011;5571;48.110;-1.706;2024-02-28T02:53:03;8.63;;;6.77;;
11034;SDS011;5571;48.110;-1.706;2024-02-28T02:55:29;19.07;;;6.97;;
11034;SDS011;5571;48.110;-1.706;2024-02-28T02:57:55;12.90;;;6.80;;
11034;SDS011;5571;48.110;-1.706;2024-02-28T03:00:21;8.27;;;6.63;;
11034;SDS011;5571;48.110;-1.706;2024-02-28T03:02:47;11.67;;;7.03;;
11034;SDS011;5571;48.110;-1.706;2024-02-28T03:05:13;7.37;;;6.20;;
11034;SDS011;5571;48.110;-1.706;2024-02-28T03:07:38;12.70;;;6.80;;
11034;SDS011;5571;48.110;-1.706;2024-02-28T03:10:04;11.17;;;6.30;;
11034;SDS011;5571;48.110;-1.706;2024-02-28T03:12:31;10.37;;;6.60;;
11034;SDS011;5571;48.110;-1.706;2024-02-28T03:14:56;9.97;;;6.50;;
11034;SDS011;5571;48.110;-1.706;2024-02-28T03:17:22;12.93;;;6.77;;
11034;SDS011;5571;48.110;-1.706;2024-02-28T03:19:48;7.43;;;6.00;;
11034;SDS011;5571;48.110;-1.706;2024-02-28T03:22:14;7.43;;;5.77;;
11034;SDS011;5571;48.110;-1.706;2024-02-28T03:24:39;9.63;;;6.10;;
11034;SDS011;5571;48.110;-1.706;2024-02-28T03:27:05;9.07;;;5.97;;
11034;SDS011;5571;48.110;-1.706;2024-02-28T03:29:30;9.67;;;6.50;;
11034;SDS011;5571;48.110;-1.706;2024-02-28T03:31:57;9.97;;;6.37;;
11034;SDS011;5571;48.110;-1.706;2024-02-28T03:34:23;8.50;;;6.07;;
11034;SDS011;5571;48.110;-1.706;2024-02-28T03:36:49;9.63;;;6.43;;
11034;SDS011;5571;48.110;-1.706;2024-02-28T03:39:15;15.47;;;6.80;;
11034;SDS011;5571;48.110;-1.706;2024-02-28T03:41:40;10.73;;;6.40;;
11034;SDS011;5571;48.110;-1.706;2024-02-28T03:44:06;11.63;;;6.07;;
11034;SDS011;5571;48.110;-1.706;2024-02-28T03:46:34;9.33;;;6.17;;
11034;SDS011;5571;48.110;-1.706;2024-02-28T03:49:00;7.37;;;6.20;;
11034;SDS011;5571;48.110;-1.706;2024-02-28T03:51:25;9.93;;;6.40;;
11034;SDS011;5571;48.110;-1.706;2024-02-28T03:53:51;11.80;;;6.53;;
11034;SDS011;5571;48.110;-1.706;2024-02-28T03:56:23;7.23;;;5.70;;
11034;SDS011;5571;48.110;-1.706;2024-02-28T03:58:52;11.57;;;6.43;;
11034;SDS011;5571;48.110;-1.706;2024-02-28T04:01:18;9.60;;;6.17;;
11034;SDS011;5571;48.110;-1.706;2024-02-28T04:03:44;13.90;;;7.30;;
11034;SDS011;5571;48.110;-1.706;2024-02-28T04:06:10;9.77;;;6.73;;
11034;SDS011;5571;48.110;-1.706;2024-02-28T04:08:36;11.27;;;6.80;;
11034;SDS011;5571;48.110;-1.706;2024-02-28T04:11:03;7.47;;;5.77;;
11034;SDS011;5571;48.110;-1.706;2024-02-28T04:13:28;10.47;;;6.17;;
11034;SDS011;5571;48.110;-1.706;2024-02-28T04:15:54;13.67;;;5.90;;
11034;SDS011;5571;48.110;-1.706;2024-02-28T04:18:20;10.77;;;6.10;;
11034;SDS011;5571;48.110;-1.706;2024-02-28T04:20:46;13.07;;;6.37;;
11034;SDS011;5571;48.110;-1.706;2024-02-28T04:23:12;9.80;;;5.90;;
11034;SDS011;5571;48.110;-1.706;2024-02-28T04:25:37;10.53;;;5.60;;
11034;SDS011;5571;48.110;-1.706;2024-02-28T04:28:05;9.17;;;5.90;;
11034;SDS011;5571;48.110;-1.706;2024-02-28T04:30:32;11.87;;;6.40;;
11034;SDS011;5571;48.110;-1.706;2024-02-28T04:32:58;12.10;;;6.40;;
11034;SDS011;5571;48.110;-1.706;2024-02-28T04:35:23;9.07;;;5.90;;
11034;SDS011;5571;48.110;-1.706;2024-02-28T04:37:49;12.63;;;5.70;;
11034;SDS011;5571;48.110;-1.706;2024-02-28T04:40:15;7.77;;;5.80;;
11034;SDS011;5571;48.110;-1.706;2024-02-28T04:42:41;7.97;;;5.60;;
11034;SDS011;5571;48.110;-1.706;2024-02-28T04:45:08;11.70;;;5.47;;
11034;SDS011;5571;48.110;-1.706;2024-02-28T04:47:34;9.27;;;5.87;;
11034;SDS011;5571;48.110;-1.706;2024-02-28T04:50:01;10.50;;;5.47;;
11034;SDS011;5571;48.110;-1.706;2024-02-28T04:52:26;9.47;;;5.37;;
11034;SDS011;5571;48.110;-1.706;2024-02-28T04:54:52;11.17;;;5.70;;
11034;SDS011;5571;48.110;-1.706;2024-02-28T04:57:18;11.80;;;5.70;;
11034;SDS011;5571;48.110;-1.706;2024-02-28T04:59:44;10.83;;;5.50;;
11034;SDS011;5571;48.110;-1.706;2024-02-28T05:02:11;15.73;;;5.10;;
11034;SDS011;5571;48.110;-1.706;2024-02-28T05:04:37;8.97;;;5.00;;
11034;SDS011;5571;48.110;-1.706;2024-02-28T05:07:02;7.73;;;5.00;;
11034;SDS011;5571;48.110;-1.706;2024-02-28T05:09:28;11.10;;;5.57;;
11034;SDS011;5571;48.110;-1.706;2024-02-28T05:11:54;13.87;;;5.60;;
11034;SDS011;5571;48.110;-1.706;2024-02-28T05:14:19;11.07;;;5.97;;
11034;SDS011;5571;48.110;-1.706;2024-02-28T05:16:46;13.87;;;5.77;;
11034;SDS011;5571;48.110;-1.706;2024-02-28T05:19:12;12.37;;;5.27;;
11034;SDS011;5571;48.110;-1.706;2024-02-28T05:21:39;12.73;;;5.87;;
11034;SDS011;5571;48.110;-1.706;2024-02-28T05:24:06;9.07;;;6.20;;
11034;SDS011;5571;48.110;-1.706;2024-02-28T05:26:33;11.27;;;5.60;;
11034;SDS011;5571;48.110;-1.706;2024-02-28T05:29:03;8.97;;;5.23;;
11034;SDS011;5571;48.110;-1.706;2024-02-28T05:31:29;19.00;;;6.10;;
11034;SDS011;5571;48.110;-1.706;2024-02-28T05:33:56;10.37;;;5.43;;
11034;SDS011;5571;48.110;-1.706;2024-02-28T05:36:23;17.63;;;5.97;;
11034;SDS011;5571;48.110;-1.706;2024-02-28T05:38:50;13.60;;;5.63;;
11034;SDS011;5571;48.110;-1.706;2024-02-28T05:41:16;12.50;;;6.20;;
11034;SDS011;5571;48.110;-1.706;2024-02-28T05:43:43;15.60;;;5.77;;
11034;SDS011;5571;48.110;-1.706;2024-02-28T05:46:08;15.30;;;5.80;;
11034;SDS011;5571;48.110;-1.706;2024-02-28T05:48:34;19.13;;;6.53;;
11034;SDS011;5571;48.110;-1.706;2024-02-28T05:51:00;12.67;;;6.13;;
11034;SDS011;5571;48.110;-1.706;2024-02-28T05:53:26;14.07;;;5.70;;
11034;SDS011;5571;48.110;-1.706;2024-02-28T05:55:52;18.67;;;6.00;;
11034;SDS011;5571;48.110;-1.706;2024-02-28T05:58:19;18.30;;;5.70;;
11034;SDS011;5571;48.110;-1.706;2024-02-28T06:00:44;10.40;;;5.83;;
11034;SDS011;5571;48.110;-1.706;2024-02-28T06:03:10;13.07;;;5.70;;
11034;SDS011;5571;48.110;-1.706;2024-02-28T06:05:36;12.83;;;6.30;;
11034;SDS011;5571;48.110;-1.706;2024-02-28T06:08:01;15.50;;;6.07;;
11034;SDS011;5571;48.110;-1.706;2024-02-28T06:10:27;10.37;;;5.47;;
11034;SDS011;5571;48.110;-1.706;2024-02-28T06:12:53;13.27;;;6.30;;
11034;SDS011;5571;48.110;-1.706;2024-02-28T06:15:19;15.23;;;6.33;;
11034;SDS011;5571;48.110;-1.706;2024-02-28T06:17:44;13.03;;;6.20;;
11034;SDS011;5571;48.110;-1.706;2024-02-28T06:20:10;13.13;;;6.47;;
11034;SDS011;5571;48.110;-1.706;2024-02-28T06:22:36;17.83;;;6.47;;
11034;SDS011;5571;48.110;-1.706;2024-02-28T06:25:01;10.83;;;6.30;;
11034;SDS011;5571;48.110;-1.706;2024-02-28T06:27:27;17.37;;;7.10;;
11034;SDS011;5571;48.110;-1.706;2024-02-28T06:29:53;20.60;;;7.20;;
11034;SDS011;5571;48.110;-1.706;2024-02-28T06:32:18;17.10;;;7.03;;
11034;SDS011;5571;48.110;-1.706;2024-02-28T06:34:44;15.20;;;6.83;;
11034;SDS011;5571;48.110;-1.706;2024-02-28T06:37:10;12.77;;;7.30;;
11034;SDS011;5571;48.110;-1.706;2024-02-28T06:39:35;18.33;;;7.37;;
11034;SDS011;5571;48.110;-1.706;2024-02-28T06:42:01;17.53;;;7.30;;
11034;SDS011;5571;48.110;-1.706;2024-02-28T06:44:26;20.53;;;7.67;;
11034;SDS011;5571;48.110;-1.706;2024-02-28T06:46:52;27.23;;;8.30;;
11034;SDS011;5571;48.110;-1.706;2024-02-28T06:49:17;26.90;;;8.60;;
11034;SDS011;5571;48.110;-1.706;2024-02-28T06:51:43;22.07;;;9.23;;
11034;SDS011;5571;48.110;-1.706;2024-02-28T06:54:10;28.90;;;8.63;;
11034;SDS011;5571;48.110;-1.706;2024-02-28T06:56:35;24.00;;;8.70;;
11034;SDS011;5571;48.110;-1.706;2024-02-28T06:59:01;36.43;;;10.13;;
11034;SDS011;5571;48.110;-1.706;2024-02-28T07:01:28;25.27;;;9.03;;
11034;SDS011;5571;48.110;-1.706;2024-02-28T07:03:54;27.20;;;10.53;;
11034;SDS011;5571;48.110;-1.706;2024-02-28T07:06:20;40.73;;;9.97;;
11034;SDS011;5571;48.110;-1.706;2024-02-28T07:08:45;33.90;;;11.40;;
11034;SDS011;5571;48.110;-1.706;2024-02-28T07:11:14;28.83;;;10.70;;
11034;SDS011;5571;48.110;-1.706;2024-02-28T07:13:40;33.30;;;12.03;;
11034;SDS011;5571;48.110;-1.706;2024-02-28T07:16:06;28.83;;;11.20;;
11034;SDS011;5571;48.110;-1.706;2024-02-28T07:18:32;27.00;;;11.40;;
11034;SDS011;5571;48.110;-1.706;2024-02-28T07:20:58;35.47;;;12.67;;
11034;SDS011;5571;48.110;-1.706;2024-02-28T07:23:24;26.00;;;12.23;;
11034;SDS011;5571;48.110;-1.706;2024-02-28T07:25:49;31.30;;;12.30;;
11034;SDS011;5571;48.110;-1.706;2024-02-28T07:28:15;33.73;;;12.03;;
11034;SDS011;5571;48.110;-1.706;2024-02-28T07:30:40;29.87;;;10.40;;
11034;SDS011;5571;48.110;-1.706;2024-02-28T07:33:07;24.13;;;10.53;;
11034;SDS011;5571;48.110;-1.706;2024-02-28T07:35:43;27.57;;;11.43;;
11034;SDS011;5571;48.110;-1.706;2024-02-28T07:38:11;20.77;;;11.27;;
11034;SDS011;5571;48.110;-1.706;2024-02-28T07:40:37;23.80;;;11.03;;
11034;SDS011;5571;48.110;-1.706;2024-02-28T07:43:03;19.73;;;11.20;;
11034;SDS011;5571;48.110;-1.706;2024-02-28T07:45:29;19.97;;;11.60;;
11034;SDS011;5571;48.110;-1.706;2024-02-28T07:47:54;26.60;;;11.10;;
11034;SDS011;5571;48.110;-1.706;2024-02-28T07:50:20;19.53;;;10.70;;
11034;SDS011;5571;48.110;-1.706;2024-02-28T07:52:45;22.83;;;11.50;;
11034;SDS011;5571;48.110;-1.706;2024-02-28T07:55:11;22.27;;;11.77;;
11034;SDS011;5571;48.110;-1.706;2024-02-28T07:57:37;25.37;;;11.97;;
11034;SDS011;5571;48.110;-1.706;2024-02-28T08:00:03;22.87;;;13.50;;
11034;SDS011;5571;48.110;-1.706;2024-02-28T08:02:29;21.90;;;12.43;;
11034;SDS011;5571;48.110;-1.706;2024-02-28T08:04:55;20.13;;;11.10;;
11034;SDS011;5571;48.110;-1.706;2024-02-28T08:07:21;26.30;;;14.03;;
11034;SDS011;5571;48.110;-1.706;2024-02-28T08:09:47;16.00;;;10.60;;
11034;SDS011;5571;48.110;-1.706;2024-02-28T08:12:12;16.73;;;11.17;;
11034;SDS011;5571;48.110;-1.706;2024-02-28T08:14:38;20.43;;;10.93;;
11034;SDS011;5571;48.110;-1.706;2024-02-28T08:17:04;16.53;;;10.87;;
11034;SDS011;5571;48.110;-1.706;2024-02-28T08:19:29;13.43;;;10.10;;
11034;SDS011;5571;48.110;-1.706;2024-02-28T08:21:55;18.13;;;11.00;;
11034;SDS011;5571;48.110;-1.706;2024-02-28T08:24:20;15.83;;;11.07;;
11034;SDS011;5571;48.110;-1.706;2024-02-28T08:26:46;16.17;;;11.53;;
11034;SDS011;5571;48.110;-1.706;2024-02-28T08:29:12;15.37;;;11.00;;
11034;SDS011;5571;48.110;-1.706;2024-02-28T08:31:41;17.17;;;10.77;;
11034;SDS011;5571;48.110;-1.706;2024-02-28T08:34:08;17.90;;;10.20;;
11034;SDS011;5571;48.110;-1.706;2024-02-28T08:36:34;20.77;;;13.87;;
11034;SDS011;5571;48.110;-1.706;2024-02-28T08:39:00;15.10;;;10.13;;
11034;SDS011;5571;48.110;-1.706;2024-02-28T08:41:26;15.23;;;10.83;;
11034;SDS011;5571;48.110;-1.706;2024-02-28T08:43:52;15.40;;;10.07;;
11034;SDS011;5571;48.110;-1.706;2024-02-28T08:46:17;16.30;;;10.27;;
11034;SDS011;5571;48.110;-1.706;2024-02-28T08:48:43;13.70;;;10.10;;
11034;SDS011;5571;48.110;-1.706;2024-02-28T08:51:09;15.13;;;9.83;;
11034;SDS011;5571;48.110;-1.706;2024-02-28T08:53:34;12.77;;;8.57;;
11034;SDS011;5571;48.110;-1.706;2024-02-28T08:56:00;11.77;;;9.20;;
11034;SDS011;5571;48.110;-1.706;2024-02-28T08:58:25;10.67;;;8.83;;
11034;SDS011;5571;48.110;-1.706;2024-02-28T09:00:51;8.97;;;6.80;;
11034;SDS011;5571;48.110;-1.706;2024-02-28T09:03:17;10.53;;;8.30;;
11034;SDS011;5571;48.110;-1.706;2024-02-28T09:05:42;14.03;;;9.17;;
11034;SDS011;5571;48.110;-1.706;2024-02-28T09:08:08;8.43;;;7.53;;
11034;SDS011;5571;48.110;-1.706;2024-02-28T09:10:33;8.37;;;7.30;;
11034;SDS011;5571;48.110;-1.706;2024-02-28T09:12:59;9.07;;;7.93;;
11034;SDS011;5571;48.110;-1.706;2024-02-28T09:15:25;9.47;;;7.47;;
11034;SDS011;5571;48.110;-1.706;2024-02-28T09:17:51;8.80;;;7.27;;
11034;SDS011;5571;48.110;-1.706;2024-02-28T09:20:17;8.73;;;7.80;;
11034;SDS011;5571;48.110;-1.706;2024-02-28T09:22:42;9.93;;;8.13;;
11034;SDS011;5571;48.110;-1.706;2024-02-28T09:25:08;10.93;;;9.13;;
11034;SDS011;5571;48.110;-1.706;2024-02-28T09:27:34;10.40;;;8.43;;
11034;SDS011;5571;48.110;-1.706;2024-02-28T09:30:03;12.77;;;10.50;;
11034;SDS011;5571;48.110;-1.706;2024-02-28T09:32:29;15.13;;;10.90;;
11034;SDS011;5571;48.110;-1.706;2024-02-28T09:34:55;13.13;;;10.50;;
11034;SDS011;5571;48.110;-1.706;2024-02-28T09:37:21;17.93;;;13.00;;
11034;SDS011;5571;48.110;-1.706;2024-02-28T09:39:47;17.00;;;12.60;;
11034;SDS011;5571;48.110;-1.706;2024-02-28T09:42:13;18.70;;;12.80;;
11034;SDS011;5571;48.110;-1.706;2024-02-28T09:44:40;16.83;;;11.73;;
11034;SDS011;5571;48.110;-1.706;2024-02-28T09:47:07;19.03;;;13.97;;
11034;SDS011;5571;48.110;-1.706;2024-02-28T09:49:33;16.83;;;11.83;;
11034;SDS011;5571;48.110;-1.706;2024-02-28T09:52:01;15.20;;;11.43;;
11034;SDS011;5571;48.110;-1.706;2024-02-28T09:54:29;15.03;;;11.30;;
11034;SDS011;5571;48.110;-1.706;2024-02-28T09:56:55;14.83;;;11.33;;
11034;SDS011;5571;48.110;-1.706;2024-02-28T09:59:21;18.37;;;12.27;;
11034;SDS011;5571;48.110;-1.706;2024-02-28T10:01:53;14.23;;;11.23;;
11034;SDS011;5571;48.110;-1.706;2024-02-28T10:04:23;11.13;;;9.93;;
11034;SDS011;5571;48.110;-1.706;2024-02-28T10:06:50;11.17;;;9.20;;
11034;SDS011;5571;48.110;-1.706;2024-02-28T10:09:16;11.40;;;9.70;;
11034;SDS011;5571;48.110;-1.706;2024-02-28T10:11:42;11.37;;;9.60;;
11034;SDS011;5571;48.110;-1.706;2024-02-28T10:14:17;15.40;;;11.10;;
11034;SDS011;5571;48.110;-1.706;2024-02-28T10:16:44;17.07;;;11.30;;
11034;SDS011;5571;48.110;-1.706;2024-02-28T10:19:09;13.90;;;9.77;;
11034;SDS011;5571;48.110;-1.706;2024-02-28T10:21:35;12.40;;;9.93;;
11034;SDS011;5571;48.110;-1.706;2024-02-28T10:24:00;14.17;;;10.73;;
11034;SDS011;5571;48.110;-1.706;2024-02-28T10:26:26;11.30;;;9.47;;
11034;SDS011;5571;48.110;-1.706;2024-02-28T10:28:52;12.00;;;9.17;;
11034;SDS011;5571;48.110;-1.706;2024-02-28T10:31:17;12.37;;;9.37;;
11034;SDS011;5571;48.110;-1.706;2024-02-28T10:33:46;10.27;;;8.53;;
11034;SDS011;5571;48.110;-1.706;2024-02-28T10:36:12;12.40;;;9.60;;
11034;SDS011;5571;48.110;-1.706;2024-02-28T10:38:37;13.53;;;9.73;;
11034;SDS011;5571;48.110;-1.706;2024-02-28T10:41:03;12.37;;;9.43;;
11034;SDS011;5571;48.110;-1.706;2024-02-28T10:43:29;15.17;;;10.03;;
11034;SDS011;5571;48.110;-1.706;2024-02-28T10:45:58;15.67;;;10.47;;
11034;SDS011;5571;48.110;-1.706;2024-02-28T10:48:24;13.57;;;10.20;;
11034;SDS011;5571;48.110;-1.706;2024-02-28T10:50:50;18.57;;;10.90;;
11034;SDS011;5571;48.110;-1.706;2024-02-28T10:53:16;13.70;;;9.97;;
11034;SDS011;5571;48.110;-1.706;2024-02-28T10:55:49;13.67;;;10.27;;
11034;SDS011;5571;48.110;-1.706;2024-02-28T10:58:14;16.07;;;10.03;;
11034;SDS011;5571;48.110;-1.706;2024-02-28T11:00:42;14.93;;;10.63;;
11034;SDS011;5571;48.110;-1.706;2024-02-28T11:03:12;15.77;;;10.13;;
11034;SDS011;5571;48.110;-1.706;2024-02-28T11:05:42;10.90;;;8.40;;
11034;SDS011;5571;48.110;-1.706;2024-02-28T11:08:11;11.97;;;8.37;;
11034;SDS011;5571;48.110;-1.706;2024-02-28T11:10:47;8.40;;;6.67;;
11034;SDS011;5571;48.110;-1.706;2024-02-28T11:13:26;11.90;;;7.33;;
11034;SDS011;5571;48.110;-1.706;2024-02-28T11:15:53;8.53;;;7.37;;
11034;SDS011;5571;48.110;-1.706;2024-02-28T11:18:22;10.03;;;7.50;;
11034;SDS011;5571;48.110;-1.706;2024-02-28T11:20:47;7.87;;;7.07;;
11034;SDS011;5571;48.110;-1.706;2024-02-28T11:23:14;13.03;;;7.60;;
11034;SDS011;5571;48.110;-1.706;2024-02-28T11:25:42;7.80;;;7.00;;
11034;SDS011;5571;48.110;-1.706;2024-02-28T11:28:08;9.40;;;7.80;;
11034;SDS011;5571;48.110;-1.706;2024-02-28T11:30:34;7.23;;;6.53;;
11034;SDS011;5571;48.110;-1.706;2024-02-28T11:33:00;6.30;;;5.70;;
11034;SDS011;5571;48.110;-1.706;2024-02-28T11:35:26;9.27;;;7.40;;
11034;SDS011;5571;48.110;-1.706;2024-02-28T11:37:53;13.10;;;8.47;;
11034;SDS011;5571;48.110;-1.706;2024-02-28T11:40:22;12.07;;;8.23;;
11034;SDS011;5571;48.110;-1.706;2024-02-28T11:42:52;7.13;;;5.90;;
11034;SDS011;5571;48.110;-1.706;2024-02-28T11:45:18;8.23;;;6.70;;
11034;SDS011;5571;48.110;-1.706;2024-02-28T11:47:44;6.17;;;5.20;;
11034;SDS011;5571;48.110;-1.706;2024-02-28T11:50:10;6.50;;;5.80;;
11034;SDS011;5571;48.110;-1.706;2024-02-28T11:52:36;6.13;;;5.53;;
11034;SDS011;5571;48.110;-1.706;2024-02-28T11:55:02;5.80;;;5.20;;
11034;SDS011;5571;48.110;-1.706;2024-02-28T11:57:28;6.43;;;5.63;;
11034;SDS011;5571;48.110;-1.706;2024-02-28T11:59:58;6.67;;;5.80;;
11034;SDS011;5571;48.110;-1.706;2024-02-28T12:02:32;6.57;;;5.60;;
11034;SDS011;5571;48.110;-1.706;2024-02-28T12:05:02;5.90;;;5.30;;
11034;SDS011;5571;48.110;-1.706;2024-02-28T12:07:29;6.47;;;5.87;;
11034;SDS011;5571;48.110;-1.706;2024-02-28T12:09:55;6.90;;;6.20;;
11034;SDS011;5571;48.110;-1.706;2024-02-28T12:12:21;6.73;;;6.03;;
11034;SDS011;5571;48.110;-1.706;2024-02-28T12:14:47;6.93;;;6.00;;
11034;SDS011;5571;48.110;-1.706;2024-02-28T12:17:14;8.57;;;7.00;;
11034;SDS011;5571;48.110;-1.706;2024-02-28T12:19:40;7.13;;;6.43;;
11034;SDS011;5571;48.110;-1.706;2024-02-28T12:22:05;6.90;;;6.20;;
11034;SDS011;5571;48.110;-1.706;2024-02-28T12:24:32;8.03;;;7.23;;
11034;SDS011;5571;48.110;-1.706;2024-02-28T12:26:58;8.07;;;6.53;;
11034;SDS011;5571;48.110;-1.706;2024-02-28T12:29:23;8.73;;;6.97;;
11034;SDS011;5571;48.110;-1.706;2024-02-28T12:31:49;9.33;;;7.47;;
11034;SDS011;5571;48.110;-1.706;2024-02-28T12:34:14;7.57;;;6.80;;
11034;SDS011;5571;48.110;-1.706;2024-02-28T12:36:40;7.27;;;6.57;;
11034;SDS011;5571;48.110;-1.706;2024-02-28T12:39:07;7.23;;;6.23;;
11034;SDS011;5571;48.110;-1.706;2024-02-28T12:41:36;7.53;;;6.70;;
11034;SDS011;5571;48.110;-1.706;2024-02-28T12:44:03;6.50;;;5.90;;
11034;SDS011;5571;48.110;-1.706;2024-02-28T12:46:29;7.50;;;6.70;;
11034;SDS011;5571;48.110;-1.706;2024-02-28T12:48:55;7.03;;;6.27;;
11034;SDS011;5571;48.110;-1.706;2024-02-28T12:51:40;6.37;;;5.77;;
11034;SDS011;5571;48.110;-1.706;2024-02-28T12:54:07;8.50;;;6.27;;
11034;SDS011;5571;48.110;-1.706;2024-02-28T12:56:34;7.03;;;6.33;;
11034;SDS011;5571;48.110;-1.706;2024-02-28T12:59:03;7.83;;;6.70;;
11034;SDS011;5571;48.110;-1.706;2024-02-28T13:01:32;7.07;;;6.37;;
11034;SDS011;5571;48.110;-1.706;2024-02-28T13:03:58;13.67;;;9.47;;
11034;SDS011;5571;48.110;-1.706;2024-02-28T13:06:24;8.07;;;6.73;;
11034;SDS011;5571;48.110;-1.706;2024-02-28T13:08:49;9.83;;;8.27;;
11034;SDS011;5571;48.110;-1.706;2024-02-28T13:11:20;7.50;;;6.73;;
11034;SDS011;5571;48.110;-1.706;2024-02-28T13:13:48;7.93;;;7.10;;
11034;SDS011;5571;48.110;-1.706;2024-02-28T13:16:14;8.27;;;7.07;;
11034;SDS011;5571;48.110;-1.706;2024-02-28T13:18:41;8.37;;;6.40;;
11034;SDS011;5571;48.110;-1.706;2024-02-28T13:21:06;8.27;;;7.00;;
11034;SDS011;5571;48.110;-1.706;2024-02-28T13:23:32;9.20;;;7.90;;
11034;SDS011;5571;48.110;-1.706;2024-02-28T13:25:58;10.07;;;9.00;;
11034;SDS011;5571;48.110;-1.706;2024-02-28T13:28:25;12.23;;;9.60;;
11034;SDS011;5571;48.110;-1.706;2024-02-28T13:30:57;10.73;;;9.20;;
11034;SDS011;5571;48.110;-1.706;2024-02-28T13:33:23;10.53;;;8.77;;
11034;SDS011;5571;48.110;-1.706;2024-02-28T13:35:49;9.80;;;8.80;;
11034;SDS011;5571;48.110;-1.706;2024-02-28T13:38:15;10.53;;;9.43;;
11034;SDS011;5571;48.110;-1.706;2024-02-28T13:40:41;10.53;;;9.23;;
11034;SDS011;5571;48.110;-1.706;2024-02-28T13:43:09;9.67;;;8.67;;
11034;SDS011;5571;48.110;-1.706;2024-02-28T13:45:35;11.17;;;9.63;;
11034;SDS011;5571;48.110;-1.706;2024-02-28T13:48:02;11.23;;;9.20;;
11034;SDS011;5571;48.110;-1.706;2024-02-28T13:50:28;9.10;;;8.20;;
11034;SDS011;5571;48.110;-1.706;2024-02-28T13:52:57;11.90;;;9.57;;
11034;SDS011;5571;48.110;-1.706;2024-02-28T13:55:23;9.80;;;8.40;;
11034;SDS011;5571;48.110;-1.706;2024-02-28T13:57:48;9.03;;;7.90;;
11034;SDS011;5571;48.110;-1.706;2024-02-28T14:00:14;7.63;;;6.93;;
11034;SDS011;5571;48.110;-1.706;2024-02-28T14:02:40;9.33;;;7.57;;
11034;SDS011;5571;48.110;-1.706;2024-02-28T14:05:06;9.13;;;7.47;;
11034;SDS011;5571;48.110;-1.706;2024-02-28T14:07:35;9.00;;;8.17;;
11034;SDS011;5571;48.110;-1.706;2024-02-28T14:10:02;9.57;;;8.67;;
11034;SDS011;5571;48.110;-1.706;2024-02-28T14:12:28;7.47;;;6.73;;
11034;SDS011;5571;48.110;-1.706;2024-02-28T14:14:54;8.37;;;7.47;;
11034;SDS011;5571;48.110;-1.706;2024-02-28T14:17:20;7.80;;;7.00;;
11034;SDS011;5571;48.110;-1.706;2024-02-28T14:19:45;7.13;;;5.83;;
11034;SDS011;5571;48.110;-1.706;2024-02-28T14:22:13;8.33;;;7.53;;
11034;SDS011;5571;48.110;-1.706;2024-02-28T14:24:39;9.30;;;7.80;;
11034;SDS011;5571;48.110;-1.706;2024-02-28T14:27:05;10.40;;;8.17;;
11034;SDS011;5571;48.110;-1.706;2024-02-28T14:29:30;9.03;;;7.40;;